Tamara — HOEH — position and weather

sailwx.info

Track history (hours):
 
Tides and Currents Weather Stations Pressure Air Temp Water Temp Dewpoint Dewpoint Depression Visibility Wind Speed Wind Dir Waves Ship Positions

Tamara

Last reported at 2015-May-21 02:33 UTC. Time now 2015-May-22 14:36 UTC.
Position N 33°33' E 034°18'.

Length 117 m; draft 5.7 m.

Type: Ship (hazmat cat A). MMSI: 353900000.

Date/timePositionNaut miles runAvg speedWind from/ knotsBaromVisibWave heightAir tempDewpointWater temp
2015-May-21 02:33N 33°33' E 034°18'4013.3
2015-May-20 23:33N 33°17' E 033°34'1413.7
2015-May-20 22:33N 33°11' E 033°19'1413.8
2015-May-20 21:33N 33°05' E 033°04'4213.6
2015-May-20 18:29N 32°48' E 032°19'1313.5
2015-May-20 17:34N 32°43' E 032°05'5613.5
2015-May-20 13:26N 32°20' E 031°05'1213.4
2015-May-20 12:33N 32°14' E 030°53'1413.5
2015-May-20 11:33N 32°10' E 030°38'1713.6
2015-May-20 10:17N 32°02' E 030°20'1014.0
2015-May-20 09:33N 31°60' E 030°08'49 1.8
2015-May-19 06:28N 31°14' E 029°44'0 0.0
2015-May-17 13:33N 31°14' E 029°44'0 0.0
2015-May-17 12:14N 31°14' E 029°44'37 4.0
2015-May-17 03:11N 31°51' E 029°48'5 6.4
2015-May-17 02:25N 31°54' E 029°52'2 1.9
2015-May-17 01:33N 31°53' E 029°51'4314.4
2015-May-16 22:33N 32°20' E 030°30'3013.7
2015-May-16 20:21N 32°35' E 031°02'1114.1
2015-May-16 19:33N 32°41' E 031°12'1513.8
2015-May-16 18:29N 32°55' E 031°19'1614.5
2015-May-16 17:25N 33°04' E 031°34'1315.0
2015-May-16 16:33N 33°13' E 031°45'1515.1
2015-May-16 15:33N 33°22' E 031°59'1514.7
2015-May-16 14:33N 33°32' E 032°13'1514.9
2015-May-16 13:33N 33°41' E 032°27'1515.0
2015-May-16 12:33N 33°51' E 032°41'1514.6
2015-May-16 11:34N 33°60' E 032°54'1514.7
2015-May-16 10:33N 34°09' E 033°08'1514.9
2015-May-16 09:33N 34°18' E 033°22'1514.6
2015-May-16 08:33N 34°29' E 033°34'8 6.3
2015-May-16 07:17N 34°35' E 033°40'0 0.4
2015-May-16 06:20N 34°35' E 033°41'0 0.4
2015-May-16 05:29N 34°35' E 033°41'1 0.4
2015-May-16 02:26N 34°34' E 033°42'0 0.4
2015-May-16 01:32N 34°34' E 033°43'0 0.2
2015-May-15 23:11N 34°34' E 033°43'0 0.2
2015-May-15 22:20N 34°34' E 033°43'0 0.4
2015-May-15 21:29N 34°33' E 033°43'1 0.6
2015-May-15 20:11N 34°33' E 033°42'1 0.8
2015-May-15 19:29N 34°33' E 033°41'1 1.0
2015-May-15 18:32N 34°32' E 033°41'1 1.2
2015-May-15 17:32N 34°31' E 033°39'1 1.4
2015-May-15 16:32N 34°30' E 033°38'2 1.6
2015-May-15 15:29N 34°29' E 033°37'2 1.6
2015-May-15 14:32N 34°28' E 033°35'2 1.6
2015-May-15 13:32N 34°27' E 033°34'2 1.5
2015-May-15 12:20N 34°26' E 033°32'1 1.3
2015-May-15 11:17N 34°25' E 033°31'1 1.2
2015-May-15 10:32N 34°24' E 033°30'1 1.1
2015-May-15 09:32N 34°24' E 033°29'1 1.0
2015-May-15 08:32N 34°23' E 033°28'1 1.0
2015-May-15 07:26N 34°23' E 033°27'4 4.8
2015-May-15 06:30N 34°21' E 033°31'1 1.5
2015-May-15 05:31N 34°22' E 033°30'1 1.5
2015-May-15 04:32N 34°22' E 033°28'2 1.5
2015-May-15 03:24N 34°23' E 033°27'1 1.5
2015-May-15 02:29N 34°24' E 033°25'1 1.4
2015-May-15 01:30N 34°24' E 033°24'1 1.3
2015-May-15 00:32N 34°25' E 033°22'1 1.2
2015-May-14 23:31N 34°26' E 033°21'1 1.1
2015-May-14 22:31N 34°27' E 033°20'1 1.1
2015-May-14 21:28N 34°27' E 033°19'1 1.1
2015-May-14 20:25N 34°28' E 033°18'1 1.3
2015-May-14 19:31N 34°29' E 033°17'7 7.0
2015-May-14 18:33N 34°26' E 033°24'1312.6
2015-May-14 17:30N 34°20' E 033°38'1413.9
2015-May-14 16:30N 34°10' E 033°51'1313.4
2015-May-14 15:32N 34°07' E 034°06'1413.5
2015-May-14 14:31N 34°04' E 034°22'48 2.0
2015-May-13 14:09N 34°30' E 033°32'915.2
2015-May-13 13:33N 34°33' E 033°22'1514.8
2015-May-13 12:34N 34°38' E 033°05'2 2.3
2015-May-13 11:32N 34°40' E 033°04'0 0.0
2015-May-13 10:32N 34°40' E 033°04'0 0.0
2015-May-13 07:32N 34°40' E 033°04'0 0.0
2015-May-13 06:32N 34°40' E 033°04'0 0.1
2015-May-13 05:32N 34°40' E 033°04'0 0.0
2015-May-13 04:32N 34°40' E 033°04'0 0.0
2015-May-13 03:32N 34°40' E 033°04'0 0.0
2015-May-13 02:32N 34°40' E 033°04'0 0.0
2015-May-13 01:32N 34°40' E 033°04'0 0.0
2015-May-13 00:32N 34°40' E 033°04'0 0.0
2015-May-12 23:32N 34°40' E 033°04'0 0.0
2015-May-12 22:32N 34°40' E 033°04'0 0.0
2015-May-12 21:32N 34°40' E 033°04'0 0.0
2015-May-12 20:32N 34°40' E 033°04'0 0.0
2015-May-12 19:32N 34°40' E 033°04'0 0.0
2015-May-12 18:32N 34°40' E 033°04'0 0.0
2015-May-12 17:32N 34°40' E 033°04'0 0.0
2015-May-12 16:32N 34°40' E 033°04'0 0.0
2015-May-12 15:32N 34°40' E 033°04'0 0.0
2015-May-12 14:32N 34°40' E 033°04'0 0.0
2015-May-12 13:32N 34°40' E 033°04'0 0.0
2015-May-12 12:31N 34°40' E 033°04'0 0.0
2015-May-12 11:31N 34°40' E 033°04'0 0.0
2015-May-12 10:31N 34°40' E 033°04'0 0.0
2015-May-12 09:31N 34°40' E 033°04'0 0.0
2015-May-12 08:31N 34°40' E 033°04'0 0.0
2015-May-12 07:31N 34°40' E 033°04'0 0.0
2015-May-12 06:31N 34°40' E 033°04'0 0.0
2015-May-12 05:31N 34°40' E 033°04'0 0.0
2015-May-12 04:31N 34°40' E 033°04'0 0.0
2015-May-12 03:31N 34°40' E 033°04'0 0.1
2015-May-12 02:31N 34°40' E 033°04'3 2.9
2015-May-12 01:33N 34°37' E 033°05'10 9.7
2015-May-12 00:33N 34°31' E 032°56'1514.6
2015-May-11 23:33N 34°35' E 032°39'1514.4
2015-May-11 22:32N 34°38' E 032°22'  
Track history (hours):
 
Tides and Currents Weather Stations Pressure Air Temp Water Temp Dewpoint Dewpoint Depression Visibility Wind Speed Wind Dir Waves Ship Positions

Tamara

Last reported at 2015-May-21 02:33 UTC. Time now 2015-May-22 14:36 UTC.
Position N 33°33' E 034°18'.

Length 117 m; draft 5.7 m.

Type: Ship (hazmat cat A). MMSI: 353900000.

Date/timePositionNaut miles runAvg speedWind from/ knotsBaromVisibWave heightAir tempDewpointWater temp
2015-May-21 02:33N 33°33' E 034°18'4013.3
2015-May-20 23:33N 33°17' E 033°34'1413.7
2015-May-20 22:33N 33°11' E 033°19'1413.8
2015-May-20 21:33N 33°05' E 033°04'4213.6
2015-May-20 18:29N 32°48' E 032°19'1313.5
2015-May-20 17:34N 32°43' E 032°05'5613.5
2015-May-20 13:26N 32°20' E 031°05'1213.4
2015-May-20 12:33N 32°14' E 030°53'1413.5
2015-May-20 11:33N 32°10' E 030°38'1713.6
2015-May-20 10:17N 32°02' E 030°20'1014.0
2015-May-20 09:33N 31°60' E 030°08'49 1.8
2015-May-19 06:28N 31°14' E 029°44'0 0.0
2015-May-17 13:33N 31°14' E 029°44'0 0.0
2015-May-17 12:14N 31°14' E 029°44'37 4.0
2015-May-17 03:11N 31°51' E 029°48'5 6.4
2015-May-17 02:25N 31°54' E 029°52'2 1.9
2015-May-17 01:33N 31°53' E 029°51'4314.4
2015-May-16 22:33N 32°20' E 030°30'3013.7
2015-May-16 20:21N 32°35' E 031°02'1114.1
2015-May-16 19:33N 32°41' E 031°12'1513.8
2015-May-16 18:29N 32°55' E 031°19'1614.5
2015-May-16 17:25N 33°04' E 031°34'1315.0
2015-May-16 16:33N 33°13' E 031°45'1515.1
2015-May-16 15:33N 33°22' E 031°59'1514.7
2015-May-16 14:33N 33°32' E 032°13'1514.9
2015-May-16 13:33N 33°41' E 032°27'1515.0
2015-May-16 12:33N 33°51' E 032°41'1514.6
2015-May-16 11:34N 33°60' E 032°54'1514.7
2015-May-16 10:33N 34°09' E 033°08'1514.9
2015-May-16 09:33N 34°18' E 033°22'1514.6
2015-May-16 08:33N 34°29' E 033°34'8 6.3
2015-May-16 07:17N 34°35' E 033°40'0 0.4
2015-May-16 06:20N 34°35' E 033°41'0 0.4
2015-May-16 05:29N 34°35' E 033°41'1 0.4
2015-May-16 02:26N 34°34' E 033°42'0 0.4
2015-May-16 01:32N 34°34' E 033°43'0 0.2
2015-May-15 23:11N 34°34' E 033°43'0 0.2
2015-May-15 22:20N 34°34' E 033°43'0 0.4
2015-May-15 21:29N 34°33' E 033°43'1 0.6
2015-May-15 20:11N 34°33' E 033°42'1 0.8
2015-May-15 19:29N 34°33' E 033°41'1 1.0
2015-May-15 18:32N 34°32' E 033°41'1 1.2
2015-May-15 17:32N 34°31' E 033°39'1 1.4
2015-May-15 16:32N 34°30' E 033°38'2 1.6
2015-May-15 15:29N 34°29' E 033°37'2 1.6
2015-May-15 14:32N 34°28' E 033°35'2 1.6
2015-May-15 13:32N 34°27' E 033°34'2 1.5
2015-May-15 12:20N 34°26' E 033°32'1 1.3
2015-May-15 11:17N 34°25' E 033°31'1 1.2
2015-May-15 10:32N 34°24' E 033°30'1 1.1
2015-May-15 09:32N 34°24' E 033°29'1 1.0
2015-May-15 08:32N 34°23' E 033°28'1 1.0
2015-May-15 07:26N 34°23' E 033°27'4 4.8
2015-May-15 06:30N 34°21' E 033°31'1 1.5
2015-May-15 05:31N 34°22' E 033°30'1 1.5
2015-May-15 04:32N 34°22' E 033°28'2 1.5
2015-May-15 03:24N 34°23' E 033°27'1 1.5
2015-May-15 02:29N 34°24' E 033°25'1 1.4
2015-May-15 01:30N 34°24' E 033°24'1 1.3
2015-May-15 00:32N 34°25' E 033°22'1 1.2
2015-May-14 23:31N 34°26' E 033°21'1 1.1
2015-May-14 22:31N 34°27' E 033°20'1 1.1
2015-May-14 21:28N 34°27' E 033°19'1 1.1
2015-May-14 20:25N 34°28' E 033°18'1 1.3
2015-May-14 19:31N 34°29' E 033°17'7 7.0
2015-May-14 18:33N 34°26' E 033°24'1312.6
2015-May-14 17:30N 34°20' E 033°38'1413.9
2015-May-14 16:30N 34°10' E 033°51'1313.4
2015-May-14 15:32N 34°07' E 034°06'1413.5
2015-May-14 14:31N 34°04' E 034°22'48 2.0
2015-May-13 14:09N 34°30' E 033°32'915.2
2015-May-13 13:33N 34°33' E 033°22'1514.8
2015-May-13 12:34N 34°38' E 033°05'2 2.3
2015-May-13 11:32N 34°40' E 033°04'0 0.0
2015-May-13 10:32N 34°40' E 033°04'0 0.0
2015-May-13 07:32N 34°40' E 033°04'0 0.0
2015-May-13 06:32N 34°40' E 033°04'0 0.1
2015-May-13 05:32N 34°40' E 033°04'0 0.0
2015-May-13 04:32N 34°40' E 033°04'0 0.0
2015-May-13 03:32N 34°40' E 033°04'0 0.0
2015-May-13 02:32N 34°40' E 033°04'0 0.0
2015-May-13 01:32N 34°40' E 033°04'0 0.0
2015-May-13 00:32N 34°40' E 033°04'0 0.0
2015-May-12 23:32N 34°40' E 033°04'0 0.0
2015-May-12 22:32N 34°40' E 033°04'0 0.0
2015-May-12 21:32N 34°40' E 033°04'0 0.0
2015-May-12 20:32N 34°40' E 033°04'0 0.0
2015-May-12 19:32N 34°40' E 033°04'0 0.0
2015-May-12 18:32N 34°40' E 033°04'0 0.0
2015-May-12 17:32N 34°40' E 033°04'0 0.0
2015-May-12 16:32N 34°40' E 033°04'0 0.0
2015-May-12 15:32N 34°40' E 033°04'0 0.0
2015-May-12 14:32N 34°40' E 033°04'0 0.0
2015-May-12 13:32N 34°40' E 033°04'0 0.0
2015-May-12 12:31N 34°40' E 033°04'0 0.0
2015-May-12 11:31N 34°40' E 033°04'0 0.0
2015-May-12 10:31N 34°40' E 033°04'0 0.0
2015-May-12 09:31N 34°40' E 033°04'0 0.0
2015-May-12 08:31N 34°40' E 033°04'0 0.0
2015-May-12 07:31N 34°40' E 033°04'0 0.0
2015-May-12 06:31N 34°40' E 033°04'0 0.0
2015-May-12 05:31N 34°40' E 033°04'0 0.0
2015-May-12 04:31N 34°40' E 033°04'0 0.0
2015-May-12 03:31N 34°40' E 033°04'0 0.1
2015-May-12 02:31N 34°40' E 033°04'3 2.9
2015-May-12 01:33N 34°37' E 033°05'10 9.7
2015-May-12 00:33N 34°31' E 032°56'1514.6
2015-May-11 23:33N 34°35' E 032°39'1514.4
2015-May-11 22:32N 34°38' E 032°22'  

Dump ship's entire track history